Rio Hondo, Texas
Current Conditions -  °F | °C
As of 1:52 PM on Wednesday 17 Dec 2014 (Local Time) from KHRL Reporting Station
Clear Clear  
Wind Chill: 24°   Ceiling: Unl
Heat Index: 24°   Visibility: 10mi
Dew Point: 17°   Wind: 21mph
Humidity: 64%   Direction: 160°SSE
Pressure: 29.99"   Gusts: NA
Location:  26.24°N, 97.58°W
Report Text: KHRL 171952Z 16018KT 10SM CLR 24/17 A2999 RMK AO2 SLP156 T02440172
Loading
Personal Weather Stations






























Interactive Weather Map New forecast layout! Learn more

10-Day Weather Forecast

Advertisements
Track Severe Weather on mobile